Time;durP1;ratioP1;P1;durP2;ratioP2;P2;SDS_P1;SDS_P2;PMS_P1;PMS_P2;Temp;Humidity;BMP_temperature;BMP_pressure;BME280_temperature;BME280_humidity;BME280_pressure;Samples;Min_cycle;Max_cycle;Signal;HPM_P1;HPM_P2
2022/05/23 00:00:37;;;;;;;5.28;1.95;;;;;;;;;;2046067;28;20043;-59
2022/05/23 00:01:38;;;;;;;3.55;2.00;;;;;;;;;;2055270;28;20038;-62
2022/05/23 00:02:39;;;;;;;3.65;1.90;;;;;;;;;;2055671;28;20049;-61
2022/05/23 00:03:41;;;;;;;7.20;2.20;;;;;;;;;;2055985;28;20539;-59
2022/05/23 00:04:42;;;;;;;3.88;1.80;;;;;;;;;;2039769;29;20090;-63
2022/05/23 00:05:43;;;;;;;4.35;1.80;;;;;;;;;;2039758;29;20549;-61
2022/05/23 00:06:44;;;;;;;4.63;2.05;;;;;;;;;;2039449;29;20111;-61
2022/05/23 00:07:46;;;;;;;4.97;1.67;;;;;;;;;;2040264;29;20050;-62
2022/05/23 00:08:47;;;;;;;3.42;1.85;;;;;;;;;;2047843;28;20054;-59
2022/05/23 00:09:49;;;;;;;3.53;1.85;;;;;;;;;;2055493;28;20047;-62
2022/05/23 00:10:50;;;;;;;3.88;2.03;;;;;;;;;;2047710;29;20518;-59
2022/05/23 00:11:51;;;;;;;4.25;2.00;;;;;;;;;;2047575;29;20055;-60
2022/05/23 00:12:53;;;;;;;5.90;1.70;;;;;;;;;;2039988;29;20506;-62
2022/05/23 00:13:54;;;;;;;3.55;2.00;;;;;;;;;;2033405;29;20040;-59
2022/05/23 00:14:54;;;;;;;5.40;1.90;;;;;;;;;;2047341;29;20054;-59
2022/05/23 00:15:55;;;;;;;3.60;1.90;;;;;;;;;;2055629;28;20047;-59
2022/05/23 00:16:56;;;;;;;5.88;1.88;;;;;;;;;;2055803;28;20592;-60
2022/05/23 00:17:57;;;;;;;5.13;1.98;;;;;;;;;;2039988;29;20433;-60
2022/05/23 00:18:58;;;;;;;3.35;2.10;;;;;;;;;;2047441;29;20039;-59
2022/05/23 00:19:59;;;;;;;7.88;2.22;;;;;;;;;;2047300;29;20035;-60
2022/05/23 00:21:00;;;;;;;3.75;1.90;;;;;;;;;;2047346;29;20094;-60
2022/05/23 00:22:00;;;;;;;4.13;1.98;;;;;;;;;;2047425;29;20051;-60
2022/05/23 00:23:01;;;;;;;4.65;2.22;;;;;;;;;;2026731;29;20059;-60
2022/05/23 00:24:02;;;;;;;4.63;1.80;;;;;;;;;;2048583;28;20501;-59
2022/05/23 00:25:04;;;;;;;3.78;2.00;;;;;;;;;;2056153;28;20038;-61
2022/05/23 00:26:05;;;;;;;5.82;1.88;;;;;;;;;;2047871;29;20047;-58
2022/05/23 00:27:06;;;;;;;3.72;2.10;;;;;;;;;;2036729;29;20127;-61
2022/05/23 00:28:07;;;;;;;3.97;2.00;;;;;;;;;;2043433;28;20105;-62
2022/05/23 00:29:07;;;;;;;4.45;2.20;;;;;;;;;;2055484;28;20081;-60
2022/05/23 00:30:13;;;;;;;4.60;2.10;;;;;;;;;;2055611;28;20077;-60
2022/05/23 00:31:13;;;;;;;3.95;2.00;;;;;;;;;;2039503;29;20035;-59
2022/05/23 00:36:13;;;;;;;4.30;2.13;;;;;;;;;;2055931;28;20552;-60
2022/05/23 00:37:14;;;;;;;5.20;1.80;;;;;;;;;;2048173;28;20095;-59
2022/05/23 00:38:15;;;;;;;5.85;1.90;;;;;;;;;;2050552;28;20069;-60
2022/05/23 00:39:15;;;;;;;4.70;1.80;;;;;;;;;;2055586;28;20484;-59
2022/05/23 00:40:20;;;;;;;3.53;1.95;;;;;;;;;;2047253;29;20043;-61
2022/05/23 00:44:08;;;;;;;2.53;1.85;;;;;;;;;;2040775;29;20028;-61
2022/05/23 00:45:12;;;;;;;3.20;1.80;;;;;;;;;;2055792;28;20034;-60
2022/05/23 00:46:12;;;;;;;4.00;1.92;;;;;;;;;;2054744;28;20043;-60
2022/05/23 00:47:16;;;;;;;3.72;2.00;;;;;;;;;;2047995;28;20042;-59
2022/05/23 00:48:18;;;;;;;3.72;1.90;;;;;;;;;;2052876;28;20054;-60
2022/05/23 00:49:22;;;;;;;3.70;1.80;;;;;;;;;;2042262;29;20047;-62
2022/05/23 00:50:22;;;;;;;3.80;1.98;;;;;;;;;;2047800;28;20107;-60
2022/05/23 00:51:23;;;;;;;4.13;2.20;;;;;;;;;;2047675;29;20524;-60
2022/05/23 00:52:27;;;;;;;3.35;1.77;;;;;;;;;;2024689;29;20052;-61
2022/05/23 00:53:30;;;;;;;4.72;2.50;;;;;;;;;;2042311;28;20047;-60
2022/05/23 00:54:30;;;;;;;3.40;2.50;;;;;;;;;;2056709;28;20050;-62
2022/05/23 00:55:33;;;;;;;5.90;2.40;;;;;;;;;;2044477;28;20046;-61
2022/05/23 00:56:37;;;;;;;5.88;2.40;;;;;;;;;;2044595;28;20047;-60
2022/05/23 00:57:40;;;;;;;4.90;1.85;;;;;;;;;;2049879;28;20039;-59
2022/05/23 00:58:49;;;;;;;3.45;2.30;;;;;;;;;;2049816;28;20054;-61
2022/05/23 00:59:50;;;;;;;3.92;2.10;;;;;;;;;;2057199;28;20039;-62
2022/05/23 01:00:51;;;;;;;5.68;2.50;;;;;;;;;;2045740;28;20541;-60
2022/05/23 01:01:52;;;;;;;4.88;2.10;;;;;;;;;;2029740;29;20466;-61
2022/05/23 01:03:03;;;;;;;4.40;2.28;;;;;;;;;;2043535;28;20498;-59
2022/05/23 01:04:05;;;;;;;5.88;2.08;;;;;;;;;;2050311;28;20046;-62
2022/05/23 01:05:08;;;;;;;7.90;2.55;;;;;;;;;;2057249;28;20041;-58
2022/05/23 01:06:09;;;;;;;5.97;2.30;;;;;;;;;;2057330;28;20046;-59
2022/05/23 01:07:12;;;;;;;4.55;2.22;;;;;;;;;;2041558;29;20040;-59
2022/05/23 01:08:14;;;;;;;5.75;2.70;;;;;;;;;;2038128;29;20427;-61
2022/05/23 01:09:22;;;;;;;6.75;2.15;;;;;;;;;;2037353;28;20055;-63
2022/05/23 01:10:24;;;;;;;4.75;2.33;;;;;;;;;;2057228;28;20050;-60
2022/05/23 01:11:29;;;;;;;3.72;2.20;;;;;;;;;;2048815;28;20039;-59
2022/05/23 01:12:30;;;;;;;3.80;2.40;;;;;;;;;;2049261;29;20047;-59
2022/05/23 01:13:31;;;;;;;3.40;2.15;;;;;;;;;;2041342;29;20418;-61
2022/05/23 01:14:52;;;;;;;5.30;2.10;;;;;;;;;;2049980;28;20042;-62
2022/05/23 01:15:53;;;;;;;9.50;2.42;;;;;;;;;;2058524;28;20046;-58
2022/05/23 01:16:56;;;;;;;6.22;2.35;;;;;;;;;;2042207;29;20059;-59
2022/05/23 01:17:57;;;;;;;4.80;2.13;;;;;;;;;;2026565;29;20120;-60
2022/05/23 01:18:58;;;;;;;3.33;1.95;;;;;;;;;;2033353;29;20127;-59
2022/05/23 01:19:58;;;;;;;3.88;2.13;;;;;;;;;;2033047;29;20078;-59
2022/05/23 01:21:00;;;;;;;5.30;2.78;;;;;;;;;;2032171;29;20419;-59
2022/05/23 01:22:03;;;;;;;2.83;2.03;;;;;;;;;;2040670;29;20425;-61
2022/05/23 01:23:29;;;;;;;4.45;2.25;;;;;;;;;;2042287;29;20059;-59
2022/05/23 01:24:53;;;;;;;4.07;1.90;;;;;;;;;;2051326;28;20067;-59
2022/05/23 01:25:54;;;;;;;7.03;2.25;;;;;;;;;;2047034;29;20047;-61
2022/05/23 01:27:09;;;;;;;5.47;2.35;;;;;;;;;;2044687;28;20423;-59
2022/05/23 01:28:12;;;;;;;4.75;2.50;;;;;;;;;;2034164;29;20048;-59
2022/05/23 01:29:13;;;;;;;4.85;2.50;;;;;;;;;;2041935;28;20043;-59
2022/05/23 01:30:22;;;;;;;3.38;1.90;;;;;;;;;;2048961;29;20055;-59
2022/05/23 01:31:41;;;;;;;6.00;2.08;;;;;;;;;;2046238;28;20050;-58
2022/05/23 01:33:01;;;;;;;4.70;2.30;;;;;;;;;;2052241;28;20039;-59
2022/05/23 01:34:02;;;;;;;5.93;2.17;;;;;;;;;;2051262;28;20040;-59
2022/05/23 01:35:05;;;;;;;4.88;2.17;;;;;;;;;;2054667;29;20103;-60
2022/05/23 01:36:09;;;;;;;5.93;2.05;;;;;;;;;;2057052;28;20039;-59
2022/05/23 01:37:10;;;;;;;5.07;1.85;;;;;;;;;;2037329;29;20040;-61
2022/05/23 01:38:31;;;;;;;4.43;2.03;;;;;;;;;;2046318;28;20086;-60
2022/05/23 01:39:36;;;;;;;4.65;1.90;;;;;;;;;;2054664;28;20061;-59
2022/05/23 01:40:36;;;;;;;6.07;2.20;;;;;;;;;;2048599;29;20050;-61
2022/05/23 01:41:40;;;;;;;3.95;2.20;;;;;;;;;;2041419;29;20052;-59
2022/05/23 01:42:41;;;;;;;4.50;2.30;;;;;;;;;;2048968;29;20047;-62
2022/05/23 01:43:42;;;;;;;8.52;2.58;;;;;;;;;;2046526;29;20035;-60
2022/05/23 01:44:58;;;;;;;4.53;1.80;;;;;;;;;;2048561;29;20039;-61
2022/05/23 01:45:59;;;;;;;5.13;1.88;;;;;;;;;;2041463;29;20043;-59
2022/05/23 01:47:19;;;;;;;4.47;2.10;;;;;;;;;;2036335;29;20051;-59
2022/05/23 01:48:25;;;;;;;3.83;2.03;;;;;;;;;;2041528;29;20554;-59
2022/05/23 01:49:25;;;;;;;3.78;1.95;;;;;;;;;;2042195;28;20099;-59
2022/05/23 01:50:26;;;;;;;4.63;1.90;;;;;;;;;;2041057;29;20562;-58
2022/05/23 01:51:32;;;;;;;4.82;1.92;;;;;;;;;;2049462;28;20058;-61
2022/05/23 01:52:33;;;;;;;6.53;2.10;;;;;;;;;;2056272;28;20080;-59
2022/05/23 01:53:35;;;;;;;4.43;2.25;;;;;;;;;;2056829;28;20047;-61
2022/05/23 01:54:41;;;;;;;3.35;2.10;;;;;;;;;;2032297;29;20090;-61
2022/05/23 01:55:42;;;;;;;6.57;1.80;;;;;;;;;;2028373;29;20451;-61
2022/05/23 01:56:54;;;;;;;4.20;1.98;;;;;;;;;;2047323;29;20043;-59
2022/05/23 01:57:59;;;;;;;4.43;2.15;;;;;;;;;;2041451;29;20044;-60
2022/05/23 02:01:42;;;;;;;4.32;1.90;;;;;;;;;;2046979;28;20039;-60
2022/05/23 02:02:47;;;;;;;3.38;1.75;;;;;;;;;;2040859;29;20046;-60
2022/05/23 02:03:50;;;;;;;4.20;2.00;;;;;;;;;;2040591;28;20032;-59
2022/05/23 02:04:51;;;;;;;4.55;1.70;;;;;;;;;;2047646;28;20429;-60
2022/05/23 02:05:52;;;;;;;4.32;2.30;;;;;;;;;;2050601;28;20437;-61
2022/05/23 02:06:53;;;;;;;3.30;1.80;;;;;;;;;;2041562;28;20036;-60
2022/05/23 02:07:58;;;;;;;5.47;2.20;;;;;;;;;;2034344;29;20403;-60
2022/05/23 02:08:59;;;;;;;3.72;2.10;;;;;;;;;;2034522;29;20163;-59
2022/05/23 02:10:05;;;;;;;3.42;2.15;;;;;;;;;;2041062;29;20410;-59
2022/05/23 02:11:12;;;;;;;5.25;2.13;;;;;;;;;;2035224;29;20545;-61
2022/05/23 02:12:13;;;;;;;4.43;1.92;;;;;;;;;;2049291;28;20085;-59
2022/05/23 02:13:14;;;;;;;7.18;2.20;;;;;;;;;;2056817;28;20062;-61
2022/05/23 02:14:15;;;;;;;4.53;2.10;;;;;;;;;;2049093;29;20405;-59
2022/05/23 02:15:19;;;;;;;4.47;2.20;;;;;;;;;;2040743;29;20073;-61
2022/05/23 02:16:40;;;;;;;4.47;2.10;;;;;;;;;;2046786;28;20049;-59
2022/05/23 02:17:40;;;;;;;4.22;1.90;;;;;;;;;;2054022;28;20051;-59
2022/05/23 02:18:41;;;;;;;5.15;2.05;;;;;;;;;;2040872;29;20051;-60
2022/05/23 02:19:43;;;;;;;3.83;2.08;;;;;;;;;;2040401;29;20063;-59
2022/05/23 02:20:48;;;;;;;7.20;2.47;;;;;;;;;;2049099;28;20043;-60
2022/05/23 02:21:49;;;;;;;7.93;2.50;;;;;;;;;;2048668;28;20098;-59
2022/05/23 02:22:50;;;;;;;4.57;1.90;;;;;;;;;;2032929;29;20047;-61
2022/05/23 02:23:55;;;;;;;3.25;2.13;;;;;;;;;;2038337;28;20043;-61
2022/05/23 02:24:57;;;;;;;4.07;1.90;;;;;;;;;;2057061;28;20136;-61
2022/05/23 02:25:58;;;;;;;5.32;2.50;;;;;;;;;;2056181;28;20135;-60
2022/05/23 02:27:19;;;;;;;3.88;2.55;;;;;;;;;;2048485;29;20047;-59
2022/05/23 02:28:20;;;;;;;4.38;2.60;;;;;;;;;;2048598;29;20078;-60
2022/05/23 02:29:20;;;;;;;6.53;2.20;;;;;;;;;;2032951;29;20048;-60
2022/05/23 02:30:22;;;;;;;3.05;2.00;;;;;;;;;;2032788;29;20043;-59
2022/05/23 02:31:23;;;;;;;3.65;2.13;;;;;;;;;;2029739;29;20044;-61
2022/05/23 02:32:31;;;;;;;5.20;2.20;;;;;;;;;;2035109;29;20434;-60
2022/05/23 02:33:35;;;;;;;3.97;2.10;;;;;;;;;;2048275;28;20818;-60
2022/05/23 02:34:55;;;;;;;4.28;2.17;;;;;;;;;;2045722;29;20688;-59
2022/05/23 02:35:56;;;;;;;5.47;2.47;;;;;;;;;;2040485;29;20048;-61
2022/05/23 02:36:57;;;;;;;3.72;2.10;;;;;;;;;;2020031;29;20041;-60
2022/05/23 02:38:14;;;;;;;4.65;2.40;;;;;;;;;;2042953;29;20035;-61
2022/05/23 02:39:15;;;;;;;5.93;2.47;;;;;;;;;;2040722;29;20141;-60
2022/05/23 02:40:19;;;;;;;6.50;2.45;;;;;;;;;;2033417;29;20067;-60
2022/05/23 02:41:20;;;;;;;4.45;2.50;;;;;;;;;;2040901;29;20509;-62
2022/05/23 02:42:21;;;;;;;5.25;2.53;;;;;;;;;;2040362;29;20051;-61
2022/05/23 02:43:22;;;;;;;3.50;2.00;;;;;;;;;;2046376;29;20051;-62
2022/05/23 02:44:25;;;;;;;4.28;2.00;;;;;;;;;;2033328;29;20056;-60
2022/05/23 02:45:25;;;;;;;3.65;2.17;;;;;;;;;;2041785;29;20051;-59
2022/05/23 02:46:28;;;;;;;3.45;2.17;;;;;;;;;;2052300;28;20046;-60
2022/05/23 02:47:35;;;;;;;3.85;2.33;;;;;;;;;;2056406;28;20050;-61
2022/05/23 02:48:39;;;;;;;7.28;2.65;;;;;;;;;;2041279;29;20136;-61
2022/05/23 02:49:41;;;;;;;6.93;2.47;;;;;;;;;;2051666;28;20508;-60
2022/05/23 02:50:47;;;;;;;7.85;2.53;;;;;;;;;;2056494;28;20053;-60
2022/05/23 02:51:48;;;;;;;4.00;2.42;;;;;;;;;;2048505;29;20050;-59
2022/05/23 02:52:50;;;;;;;4.32;2.50;;;;;;;;;;2040601;29;20051;-61
2022/05/23 02:53:57;;;;;;;5.13;2.58;;;;;;;;;;2040684;29;20047;-61
2022/05/23 02:55:04;;;;;;;6.38;2.58;;;;;;;;;;2054056;28;20070;-59
2022/05/23 02:56:05;;;;;;;4.50;2.20;;;;;;;;;;2047231;28;20046;-60
2022/05/23 02:57:06;;;;;;;5.18;2.53;;;;;;;;;;2048358;29;20042;-59
2022/05/23 02:58:07;;;;;;;5.32;2.30;;;;;;;;;;2048163;28;20079;-59
2022/05/23 02:59:09;;;;;;;5.50;2.53;;;;;;;;;;2056589;28;20504;-59
2022/05/23 03:00:10;;;;;;;4.93;2.58;;;;;;;;;;2048671;28;20050;-59
2022/05/23 03:01:11;;;;;;;7.03;2.45;;;;;;;;;;2044738;29;20058;-60
2022/05/23 03:03:33;;;;;;;5.28;2.33;;;;;;;;;;2055715;28;20043;-60
2022/05/23 03:04:36;;;;;;;4.07;2.35;;;;;;;;;;2038540;29;20530;-59
2022/05/23 03:05:37;;;;;;;2.78;2.17;;;;;;;;;;2032557;29;20040;-60
2022/05/23 03:06:38;;;;;;;5.45;2.28;;;;;;;;;;2040654;29;20048;-59
2022/05/23 03:07:39;;;;;;;5.03;2.20;;;;;;;;;;2040304;29;20066;-59
2022/05/23 03:08:40;;;;;;;6.15;2.58;;;;;;;;;;2048861;29;20408;-60
2022/05/23 03:09:43;;;;;;;4.93;2.50;;;;;;;;;;2048601;29;20043;-61
2022/05/23 03:10:52;;;;;;;5.03;2.40;;;;;;;;;;2048492;29;20054;-60
2022/05/23 03:11:55;;;;;;;3.80;2.35;;;;;;;;;;2040008;29;20498;-59
2022/05/23 03:13:00;;;;;;;4.28;2.50;;;;;;;;;;2048791;28;20031;-60
2022/05/23 03:14:00;;;;;;;5.53;2.83;;;;;;;;;;2048536;28;20050;-61
2022/05/23 03:15:02;;;;;;;4.57;2.30;;;;;;;;;;2048319;28;20501;-60
2022/05/23 03:16:07;;;;;;;6.35;2.70;;;;;;;;;;2056171;28;20509;-62
2022/05/23 03:17:08;;;;;;;4.85;2.63;;;;;;;;;;2041256;29;20035;-61
2022/05/23 03:18:12;;;;;;;4.93;2.67;;;;;;;;;;2041198;28;20046;-59
2022/05/23 03:19:16;;;;;;;5.78;2.60;;;;;;;;;;2057108;28;20042;-59
2022/05/23 03:20:17;;;;;;;4.68;2.60;;;;;;;;;;2055811;28;20060;-60
2022/05/23 03:28:08;;;;;;;4.20;2.38;;;;;;;;;;2043134;29;20047;-61
2022/05/23 03:29:09;;;;;;;3.83;2.38;;;;;;;;;;2042331;29;20048;-60
2022/05/23 03:30:12;;;;;;;7.85;2.80;;;;;;;;;;2040021;29;20099;-60
2022/05/23 03:31:22;;;;;;;5.03;2.33;;;;;;;;;;2043115;28;20052;-60
2022/05/23 03:32:23;;;;;;;4.72;2.38;;;;;;;;;;2047840;29;20046;-59
2022/05/23 03:33:27;;;;;;;5.03;2.42;;;;;;;;;;2056040;28;20053;-61
2022/05/23 03:34:29;;;;;;;5.47;2.50;;;;;;;;;;2047784;29;20040;-61
2022/05/23 03:35:30;;;;;;;7.75;2.88;;;;;;;;;;2040536;29;20044;-59
2022/05/23 03:36:32;;;;;;;5.90;2.60;;;;;;;;;;2054128;28;20043;-59
2022/05/23 03:37:33;;;;;;;4.63;2.65;;;;;;;;;;2053682;28;20046;-60
2022/05/23 03:38:39;;;;;;;4.25;2.33;;;;;;;;;;2050627;28;20042;-59
2022/05/23 03:39:40;;;;;;;4.97;2.63;;;;;;;;;;2033844;29;20055;-60
2022/05/23 03:40:41;;;;;;;6.10;2.60;;;;;;;;;;2034670;29;20119;-62
2022/05/23 03:41:42;;;;;;;5.25;2.42;;;;;;;;;;2036323;29;20055;-59
2022/05/23 03:42:43;;;;;;;5.22;2.72;;;;;;;;;;2040221;29;20048;-60
2022/05/23 03:43:44;;;;;;;6.10;2.40;;;;;;;;;;2034348;29;20100;-60
2022/05/23 03:44:45;;;;;;;5.10;2.25;;;;;;;;;;2050462;28;20039;-60
2022/05/23 03:45:46;;;;;;;4.63;2.63;;;;;;;;;;2055644;28;20047;-61
2022/05/23 03:46:47;;;;;;;4.68;2.35;;;;;;;;;;2048534;29;20051;-62
2022/05/23 03:47:49;;;;;;;5.28;2.45;;;;;;;;;;2040512;29;20047;-62
2022/05/23 03:48:51;;;;;;;5.35;2.40;;;;;;;;;;2046313;29;20051;-60
2022/05/23 03:49:54;;;;;;;5.13;2.25;;;;;;;;;;2029146;29;20052;-59
2022/05/23 03:50:55;;;;;;;6.85;3.00;;;;;;;;;;2040884;28;20062;-62
2022/05/23 03:51:56;;;;;;;3.95;2.50;;;;;;;;;;2055275;28;20400;-61
2022/05/23 03:52:56;;;;;;;4.03;2.50;;;;;;;;;;2047755;29;20058;-60
2022/05/23 03:54:01;;;;;;;6.32;2.60;;;;;;;;;;2055601;28;20043;-60
2022/05/23 03:55:02;;;;;;;6.80;3.13;;;;;;;;;;2054371;28;20038;-60
2022/05/23 03:56:03;;;;;;;3.80;2.55;;;;;;;;;;2039299;29;20130;-62
2022/05/23 03:57:09;;;;;;;5.85;2.70;;;;;;;;;;2026250;29;20044;-60
2022/05/23 03:58:10;;;;;;;7.75;2.97;;;;;;;;;;2038865;28;20040;-60
2022/05/23 03:59:11;;;;;;;6.15;2.55;;;;;;;;;;2055665;28;20467;-59
2022/05/23 04:00:26;;;;;;;3.80;2.38;;;;;;;;;;2049356;28;20130;-60
2022/05/23 04:01:30;;;;;;;5.53;2.78;;;;;;;;;;2050055;28;20046;-59
2022/05/23 04:02:34;;;;;;;5.63;2.75;;;;;;;;;;2055566;28;20386;-60
2022/05/23 04:03:35;;;;;;;5.32;2.53;;;;;;;;;;2048410;28;20130;-61
2022/05/23 04:04:36;;;;;;;4.60;2.65;;;;;;;;;;2047920;28;20568;-61
2022/05/23 04:05:58;;;;;;;5.80;2.72;;;;;;;;;;2050215;28;20039;-60
2022/05/23 04:07:04;;;;;;;4.75;2.60;;;;;;;;;;2048106;29;20035;-62
2022/05/23 04:08:05;;;;;;;5.45;2.25;;;;;;;;;;2040629;28;20055;-61
2022/05/23 04:09:12;;;;;;;3.30;2.65;;;;;;;;;;2041433;29;20035;-62
2022/05/23 04:10:19;;;;;;;5.95;2.40;;;;;;;;;;2040915;29;20091;-61
2022/05/23 04:11:21;;;;;;;5.05;2.70;;;;;;;;;;2040903;29;20036;-60
2022/05/23 04:12:22;;;;;;;4.63;2.70;;;;;;;;;;2039711;29;20699;-59
2022/05/23 04:13:23;;;;;;;3.75;2.60;;;;;;;;;;2048550;28;20043;-60
2022/05/23 04:14:25;;;;;;;4.10;2.50;;;;;;;;;;2054779;28;20034;-61
2022/05/23 04:15:27;;;;;;;4.90;2.60;;;;;;;;;;2056176;28;20051;-61
2022/05/23 04:16:29;;;;;;;5.00;2.60;;;;;;;;;;2040299;29;20044;-62
2022/05/23 04:17:30;;;;;;;5.43;2.63;;;;;;;;;;2048235;28;20039;-60
2022/05/23 04:18:32;;;;;;;5.10;2.53;;;;;;;;;;2047333;29;20043;-62
2022/05/23 04:19:34;;;;;;;6.45;2.38;;;;;;;;;;2040242;28;20062;-60
2022/05/23 04:20:57;;;;;;;6.05;3.08;;;;;;;;;;2050444;28;20039;-59
2022/05/23 04:21:58;;;;;;;5.32;2.42;;;;;;;;;;2055255;28;20532;-59
2022/05/23 04:23:08;;;;;;;6.20;2.80;;;;;;;;;;2048352;28;20402;-59
2022/05/23 04:24:10;;;;;;;3.92;2.58;;;;;;;;;;2048313;28;20054;-62
2022/05/23 04:25:11;;;;;;;8.15;2.65;;;;;;;;;;2047625;29;20047;-60
2022/05/23 04:26:12;;;;;;;6.18;2.70;;;;;;;;;;2040497;29;20047;-60
2022/05/23 04:27:13;;;;;;;7.38;2.50;;;;;;;;;;2046247;28;20071;-60
2022/05/23 04:28:17;;;;;;;6.13;2.83;;;;;;;;;;2049698;29;20046;-59
2022/05/23 04:29:19;;;;;;;6.28;2.70;;;;;;;;;;2049649;28;20102;-60
2022/05/23 04:30:20;;;;;;;6.97;2.80;;;;;;;;;;2041240;29;20051;-59
2022/05/23 04:31:21;;;;;;;6.47;2.83;;;;;;;;;;2027009;29;20170;-60
2022/05/23 04:35:30;;;;;;;6.95;2.75;;;;;;;;;;2056260;28;20428;-61
2022/05/23 04:36:32;;;;;;;4.38;2.85;;;;;;;;;;2055419;28;20059;-60
2022/05/23 04:37:33;;;;;;;5.93;2.40;;;;;;;;;;2049664;28;20051;-60
2022/05/23 04:38:35;;;;;;;5.97;2.83;;;;;;;;;;2055202;28;20039;-62
2022/05/23 04:39:38;;;;;;;6.85;3.13;;;;;;;;;;2057445;28;20035;-59
2022/05/23 04:40:38;;;;;;;5.07;2.53;;;;;;;;;;2057458;28;20038;-59
2022/05/23 04:41:41;;;;;;;11.15;2.97;;;;;;;;;;2049340;28;20035;-60
2022/05/23 04:42:42;;;;;;;4.20;2.50;;;;;;;;;;2041713;29;20043;-60
2022/05/23 04:43:43;;;;;;;7.88;3.10;;;;;;;;;;2036130;29;20107;-60
2022/05/23 04:44:44;;;;;;;4.95;2.78;;;;;;;;;;2024615;29;20044;-59
2022/05/23 04:45:48;;;;;;;6.70;2.95;;;;;;;;;;2041949;28;20047;-59
2022/05/23 04:49:54;;;;;;;5.50;2.65;;;;;;;;;;2056799;28;20039;-60
2022/05/23 04:51:10;;;;;;;5.25;2.70;;;;;;;;;;2041503;29;20047;-61
2022/05/23 04:52:19;;;;;;;3.95;2.38;;;;;;;;;;2044839;28;20042;-60
2022/05/23 04:53:20;;;;;;;2.80;2.00;;;;;;;;;;2056893;28;20043;-63
2022/05/23 04:54:33;;;;;;;6.68;2.72;;;;;;;;;;2043181;29;20477;-61
2022/05/23 04:55:37;;;;;;;5.80;2.83;;;;;;;;;;2054983;28;20050;-61
2022/05/23 04:56:38;;;;;;;4.53;2.47;;;;;;;;;;2034101;29;20051;-60
2022/05/23 04:57:45;;;;;;;3.72;2.40;;;;;;;;;;2043555;28;20063;-61
2022/05/23 04:58:46;;;;;;;7.95;3.00;;;;;;;;;;2040637;29;20529;-60
2022/05/23 04:59:47;;;;;;;3.30;2.35;;;;;;;;;;2048612;29;20050;-61
2022/05/23 05:00:59;;;;;;;7.18;2.55;;;;;;;;;;2057424;28;20512;-60
2022/05/23 05:02:01;;;;;;;4.55;2.35;;;;;;;;;;2048785;29;20062;-60
2022/05/23 05:03:02;;;;;;;3.78;2.35;;;;;;;;;;2050087;28;20063;-62
2022/05/23 05:04:16;;;;;;;4.68;2.50;;;;;;;;;;2057228;28;20052;-60
2022/05/23 05:05:18;;;;;;;7.70;2.67;;;;;;;;;;2049995;28;20040;-60
2022/05/23 05:06:27;;;;;;;6.45;2.53;;;;;;;;;;2057238;28;20055;-60
2022/05/23 05:07:28;;;;;;;5.60;2.70;;;;;;;;;;2057215;28;20493;-59
2022/05/23 05:08:33;;;;;;;3.70;2.53;;;;;;;;;;2049473;28;20051;-60
2022/05/23 05:09:33;;;;;;;6.35;2.65;;;;;;;;;;2050021;28;20390;-59
2022/05/23 05:10:39;;;;;;;4.93;2.45;;;;;;;;;;2049268;28;20043;-60
2022/05/23 05:11:40;;;;;;;3.60;2.33;;;;;;;;;;2049166;28;20047;-60
2022/05/23 05:12:47;;;;;;;4.32;2.67;;;;;;;;;;2057229;28;20047;-59
2022/05/23 05:13:51;;;;;;;6.13;2.65;;;;;;;;;;2042539;29;20047;-59
2022/05/23 05:14:53;;;;;;;5.57;2.63;;;;;;;;;;2041487;29;20055;-60
2022/05/23 05:15:57;;;;;;;4.70;2.72;;;;;;;;;;2037718;29;20048;-60
2022/05/23 05:17:02;;;;;;;6.75;2.60;;;;;;;;;;2057948;28;20038;-59
2022/05/23 05:18:04;;;;;;;5.70;2.65;;;;;;;;;;2056811;28;20043;-60
2022/05/23 05:19:09;;;;;;;4.78;2.58;;;;;;;;;;2057372;28;20034;-59
2022/05/23 05:20:30;;;;;;;5.65;3.10;;;;;;;;;;2054303;28;20432;-59
2022/05/23 05:21:33;;;;;;;3.63;2.75;;;;;;;;;;2048902;29;20047;-59
2022/05/23 05:22:53;;;;;;;7.05;2.92;;;;;;;;;;2056524;28;20492;-59
2022/05/23 05:24:12;;;;;;;3.92;2.38;;;;;;;;;;2057782;28;20496;-59
2022/05/23 05:25:26;;;;;;;6.88;2.80;;;;;;;;;;2056764;28;20039;-60
2022/05/23 05:26:31;;;;;;;3.90;2.40;;;;;;;;;;2045190;29;20032;-61
2022/05/23 05:27:32;;;;;;;4.50;2.70;;;;;;;;;;2051626;28;20043;-61
2022/05/23 05:28:34;;;;;;;6.63;2.80;;;;;;;;;;2057009;28;20489;-63
2022/05/23 05:29:34;;;;;;;5.25;2.50;;;;;;;;;;2057072;28;20034;-62
2022/05/23 05:30:39;;;;;;;5.45;2.58;;;;;;;;;;2056194;28;20027;-61
2022/05/23 05:31:50;;;;;;;4.15;2.75;;;;;;;;;;2056527;28;20066;-61
2022/05/23 05:32:55;;;;;;;7.75;3.00;;;;;;;;;;2057543;28;20042;-61
2022/05/23 05:34:01;;;;;;;6.00;2.75;;;;;;;;;;2056844;28;20045;-59
2022/05/23 05:35:03;;;;;;;5.85;2.80;;;;;;;;;;2042285;29;20035;-59
2022/05/23 05:36:06;;;;;;;9.32;2.40;;;;;;;;;;2041842;29;20474;-62
2022/05/23 05:37:10;;;;;;;5.25;2.80;;;;;;;;;;2042788;29;20059;-60
2022/05/23 05:38:15;;;;;;;5.60;3.03;;;;;;;;;;2056604;28;20043;-60
2022/05/23 05:39:16;;;;;;;4.63;2.67;;;;;;;;;;2056068;28;20031;-59
2022/05/23 05:40:18;;;;;;;5.18;2.67;;;;;;;;;;2048536;29;20039;-61
2022/05/23 05:41:22;;;;;;;7.65;2.72;;;;;;;;;;2041068;29;20518;-61
2022/05/23 05:42:26;;;;;;;4.32;2.50;;;;;;;;;;2048997;28;20043;-59
2022/05/23 05:43:29;;;;;;;5.93;2.50;;;;;;;;;;2048504;29;20042;-62
2022/05/23 05:44:33;;;;;;;6.50;2.60;;;;;;;;;;2035424;29;20060;-60
2022/05/23 05:45:37;;;;;;;6.72;2.92;;;;;;;;;;2041246;29;20115;-60
2022/05/23 05:46:54;;;;;;;4.20;2.60;;;;;;;;;;2043813;29;20038;-60
2022/05/23 05:47:58;;;;;;;6.30;2.75;;;;;;;;;;2050974;28;20063;-60
2022/05/23 05:49:00;;;;;;;5.38;2.90;;;;;;;;;;2053711;28;20051;-59
2022/05/23 05:50:02;;;;;;;6.93;2.78;;;;;;;;;;2048227;28;20046;-62
2022/05/23 05:51:06;;;;;;;5.88;2.33;;;;;;;;;;2042794;29;20044;-60
2022/05/23 05:52:10;;;;;;;3.40;2.22;;;;;;;;;;2049263;28;20055;-61
2022/05/23 05:53:25;;;;;;;4.55;2.60;;;;;;;;;;2056752;28;20042;-61
2022/05/23 05:54:30;;;;;;;3.08;2.25;;;;;;;;;;2056210;28;20047;-60
2022/05/23 05:55:45;;;;;;;5.28;2.50;;;;;;;;;;2043526;29;20399;-62
2022/05/23 05:56:46;;;;;;;5.00;2.83;;;;;;;;;;2035150;29;20157;-60
2022/05/23 05:57:47;;;;;;;4.80;2.40;;;;;;;;;;2032270;29;20123;-61
2022/05/23 05:58:49;;;;;;;4.90;2.35;;;;;;;;;;2037348;29;20028;-60
2022/05/23 05:59:50;;;;;;;5.93;2.97;;;;;;;;;;2043502;28;20623;-62
2022/05/23 06:00:53;;;;;;;6.68;2.97;;;;;;;;;;2055872;28;20385;-59
2022/05/23 06:01:55;;;;;;;6.25;2.85;;;;;;;;;;2060833;28;20038;-61
2022/05/23 06:02:58;;;;;;;4.63;2.80;;;;;;;;;;2051413;28;20458;-60
2022/05/23 06:04:03;;;;;;;6.40;2.85;;;;;;;;;;2048676;28;20035;-59
2022/05/23 06:05:05;;;;;;;5.72;2.80;;;;;;;;;;2033354;29;20043;-60
2022/05/23 06:12:47;;;;;;;6.75;3.03;;;;;;;;;;2056237;28;20053;-60
2022/05/23 06:14:08;;;;;;;4.80;2.53;;;;;;;;;;2050571;28;20035;-61
2022/05/23 06:15:13;;;;;;;4.97;2.67;;;;;;;;;;2056200;28;20062;-58
2022/05/23 06:16:14;;;;;;;9.18;3.10;;;;;;;;;;2041215;28;20044;-60
2022/05/23 06:17:26;;;;;;;6.22;2.83;;;;;;;;;;2042906;29;20039;-61
2022/05/23 06:18:30;;;;;;;6.15;2.67;;;;;;;;;;2049293;28;20039;-59
2022/05/23 06:19:36;;;;;;;7.70;2.92;;;;;;;;;;2055861;28;20050;-60
2022/05/23 06:20:44;;;;;;;4.90;2.78;;;;;;;;;;2047137;29;20046;-61
2022/05/23 06:21:45;;;;;;;7.25;2.95;;;;;;;;;;2049360;28;20054;-59
2022/05/23 06:22:46;;;;;;;6.55;2.88;;;;;;;;;;2056894;28;20047;-59
2022/05/23 06:23:49;;;;;;;5.80;3.13;;;;;;;;;;2048164;29;20044;-59
2022/05/23 06:25:02;;;;;;;6.25;2.92;;;;;;;;;;2040595;29;20177;-59
2022/05/23 06:26:03;;;;;;;4.72;2.78;;;;;;;;;;2042291;29;20095;-60
2022/05/23 06:27:24;;;;;;;5.13;2.80;;;;;;;;;;2042876;29;20051;-60
2022/05/23 06:28:25;;;;;;;7.22;3.40;;;;;;;;;;2043286;29;20043;-61
2022/05/23 06:29:26;;;;;;;6.25;3.08;;;;;;;;;;2040811;29;20122;-61
2022/05/23 06:30:28;;;;;;;6.57;3.03;;;;;;;;;;2039372;29;20051;-60
2022/05/23 06:31:34;;;;;;;12.38;3.50;;;;;;;;;;2049504;28;20708;-61
2022/05/23 06:32:36;;;;;;;6.60;3.40;;;;;;;;;;2048744;29;20123;-61
2022/05/23 06:33:38;;;;;;;6.65;3.40;;;;;;;;;;2040808;29;20055;-61
2022/05/23 06:34:44;;;;;;;7.53;3.00;;;;;;;;;;2041369;29;20044;-59
2022/05/23 06:35:45;;;;;;;10.98;3.42;;;;;;;;;;2048552;29;20050;-61
2022/05/23 06:36:46;;;;;;;8.45;3.30;;;;;;;;;;2048188;29;20031;-60
2022/05/23 06:37:47;;;;;;;7.53;3.15;;;;;;;;;;2040676;29;20494;-60
2022/05/23 06:39:08;;;;;;;5.35;3.15;;;;;;;;;;2043927;29;20047;-60
2022/05/23 06:40:29;;;;;;;7.97;3.17;;;;;;;;;;2033870;29;20044;-59
2022/05/23 06:41:48;;;;;;;6.38;3.45;;;;;;;;;;2058374;28;20046;-60
2022/05/23 06:43:09;;;;;;;9.80;3.17;;;;;;;;;;2046555;29;20169;-59
2022/05/23 06:44:12;;;;;;;6.78;3.22;;;;;;;;;;2041189;29;20039;-60
2022/05/23 06:45:33;;;;;;;9.93;3.80;;;;;;;;;;2035604;29;20128;-59
2022/05/23 06:46:54;;;;;;;9.57;3.90;;;;;;;;;;2055491;28;20504;-62
2022/05/23 06:48:15;;;;;;;7.47;3.95;;;;;;;;;;2055114;28;20042;-60
2022/05/23 06:49:19;;;;;;;10.13;4.00;;;;;;;;;;2050956;28;20043;-60
2022/05/23 06:50:39;;;;;;;7.40;4.13;;;;;;;;;;2048657;28;20061;-59
2022/05/23 06:51:49;;;;;;;9.85;4.15;;;;;;;;;;2052033;28;20062;-58
2022/05/23 06:52:50;;;;;;;9.73;4.10;;;;;;;;;;2042342;28;20052;-59
2022/05/23 06:54:11;;;;;;;8.40;4.07;;;;;;;;;;2051374;28;20058;-60
2022/05/23 06:55:32;;;;;;;9.15;4.35;;;;;;;;;;2047721;29;20051;-59
2022/05/23 06:56:33;;;;;;;8.55;4.22;;;;;;;;;;2045694;28;20046;-61